createdAt,value
2019-04-07T00:05:28.824Z,184.97
2019-04-07T00:26:10.014Z,208.60
2019-04-07T00:36:16.834Z,189.30
2019-04-07T00:46:23.432Z,200.13
2019-04-07T01:07:23.577Z,265.50
2019-04-07T01:17:29.177Z,438.43
2019-04-07T01:27:34.811Z,258.40
2019-04-07T01:37:40.651Z,315.67
2019-04-07T01:48:00.720Z,268.50
2019-04-07T01:58:27.328Z,301.10
2019-04-07T02:08:35.289Z,255.17
2019-04-07T02:18:43.107Z,184.80
2019-04-07T02:28:59.581Z,199.07
2019-04-07T02:39:20.343Z,186.67
2019-04-07T02:49:28.468Z,163.97
2019-04-07T02:59:53.372Z,178.97
2019-04-07T03:10:04.311Z,160.83
2019-04-07T03:20:47.518Z,154.13
2019-04-07T03:31:05.960Z,145.33
2019-04-07T03:41:19.702Z,161.43
2019-04-07T03:51:39.374Z,161.00
2019-04-07T04:02:02.052Z,181.53
2019-04-07T04:12:25.348Z,165.60
2019-04-07T04:22:31.236Z,153.07
2019-04-07T04:32:37.093Z,147.93
2019-04-07T04:42:42.873Z,135.57
2019-04-07T04:52:48.744Z,123.93
2019-04-07T05:02:54.635Z,108.80
2019-04-07T05:13:00.458Z,107.23
2019-04-07T05:23:06.002Z,114.37
2019-04-07T05:33:12.073Z,112.70
2019-04-07T05:43:18.445Z,106.37
2019-04-07T05:53:24.400Z,103.03
2019-04-07T06:03:30.823Z,94.27
2019-04-07T06:13:36.555Z,86.13
2019-04-07T06:23:42.074Z,78.17
2019-04-07T06:33:47.937Z,74.60
2019-04-07T06:43:55.987Z,67.77
2019-04-07T06:54:18.556Z,69.17
2019-04-07T07:04:43.565Z,64.43
2019-04-07T07:14:49.565Z,59.10
2019-04-07T07:24:58.020Z,56.33
2019-04-07T07:35:03.082Z,44.93
2019-04-07T07:45:12.953Z,42.33
2019-04-07T07:55:17.273Z,46.17
2019-04-07T08:05:23.707Z,45.33
2019-04-07T08:15:32.231Z,36.70
2019-04-07T08:25:36.921Z,36.10
2019-04-07T08:35:42.622Z,33.70
2019-04-07T08:45:48.514Z,23.50
2019-04-07T08:55:54.731Z,22.00
2019-04-07T09:06:11.047Z,28.13
2019-04-07T09:16:33.665Z,22.70
2019-04-07T09:26:44.554Z,23.10
2019-04-07T09:37:07.022Z,16.67
2019-04-07T09:47:17.262Z,20.77
2019-04-07T09:57:28.094Z,17.33
2019-04-07T10:07:35.891Z,19.90
2019-04-07T10:17:45.890Z,22.97
2019-04-07T10:27:56.583Z,18.37
2019-04-07T10:38:20.005Z,20.37
2019-04-07T10:48:33.260Z,19.90
2019-04-07T10:58:57.075Z,21.40
2019-04-07T11:09:19.568Z,19.87
2019-04-07T11:19:28.455Z,18.27
2019-04-07T11:29:37.640Z,19.23
2019-04-07T11:39:43.586Z,20.83
2019-04-07T11:49:58.129Z,27.30
2019-04-07T12:00:22.445Z,25.47
2019-04-07T12:10:38.744Z,24.10
2019-04-07T12:21:23.218Z,28.83
2019-04-07T12:31:40.404Z,27.17
2019-04-07T12:41:58.046Z,28.67
2019-04-07T12:52:11.744Z,29.07
2019-04-07T13:02:22.834Z,28.50
2019-04-07T13:12:36.528Z,35.83
2019-04-07T13:22:47.601Z,31.50
2019-04-07T13:32:57.499Z,28.83
2019-04-07T13:43:12.279Z,30.97
2019-04-07T13:53:26.998Z,33.13
2019-04-07T14:03:48.178Z,30.83
2019-04-07T14:13:57.366Z,29.57
2019-04-07T14:24:08.133Z,32.57
2019-04-07T14:34:36.094Z,36.43
2019-04-07T14:44:44.672Z,38.80
2019-04-07T14:55:13.019Z,39.50
2019-04-07T15:05:25.299Z,40.47
2019-04-07T15:15:30.318Z,48.43
2019-04-07T15:25:38.664Z,39.17
2019-04-07T15:35:47.228Z,44.23
2019-04-07T15:45:52.245Z,40.37
2019-04-07T15:56:03.054Z,37.23
2019-04-07T16:06:05.766Z,39.97
2019-04-07T16:16:12.188Z,49.73
2019-04-07T16:26:21.704Z,46.53
2019-04-07T16:36:26.923Z,47.10
2019-04-07T16:46:33.665Z,58.13
2019-04-07T16:56:41.327Z,62.17
2019-04-07T17:07:00.191Z,95.13
2019-04-07T17:17:00.525Z,69.70
2019-04-07T17:27:09.735Z,86.50
2019-04-07T17:37:15.074Z,179.50
2019-04-07T17:47:23.362Z,139.20
2019-04-07T17:57:36.589Z,127.27
2019-04-07T18:07:51.880Z,287.30
2019-04-07T18:18:13.300Z,162.20
2019-04-07T18:28:25.846Z,95.73
2019-04-07T18:38:36.338Z,100.93
2019-04-07T18:48:59.150Z,107.33
2019-04-07T18:59:11.650Z,102.50
2019-04-07T19:09:36.346Z,92.80
2019-04-07T19:19:44.166Z,85.40
2019-04-07T19:41:02.824Z,81.30
2019-04-07T19:51:17.664Z,74.73
2019-04-07T20:01:44.618Z,78.43
2019-04-07T20:11:56.349Z,94.83
2019-04-07T20:22:04.725Z,94.33
2019-04-07T20:32:18.649Z,103.43
2019-04-07T20:42:26.856Z,87.07
2019-04-07T20:52:34.342Z,92.07
2019-04-07T21:03:14.215Z,89.97
2019-04-07T21:13:07.619Z,84.63
2019-04-07T21:23:17.280Z,89.33
2019-04-07T21:33:25.606Z,82.37
2019-04-07T21:43:42.484Z,85.27
2019-04-07T21:53:53.074Z,87.33
2019-04-07T22:04:00.894Z,88.13
2019-04-07T22:14:07.672Z,79.83
2019-04-07T22:24:13.382Z,74.80
2019-04-07T22:34:18.924Z,79.53
2019-04-07T22:44:24.587Z,108.90
2019-04-07T22:54:31.264Z,112.43
2019-04-07T23:04:38.495Z,122.03
2019-04-07T23:14:44.276Z,115.27
2019-04-07T23:24:50.745Z,142.53
2019-04-07T23:34:59.691Z,159.73
2019-04-07T23:45:08.738Z,119.43
2019-04-07T23:55:14.949Z,105.50
